Vermillion, Minnesota
Current Conditions -  °F | °C
As of 4:10 PM on Saturday 20 Dec 2014 (Local Time) from KSGS Reporting Station
Overcast Overcast  
Wind Chill: 27°   Ceiling: 1400
Heat Index: 33°   Visibility: 10mi
Dew Point: 28°   Wind: 6mph
Humidity: 83%   Direction: 160°SSE
Pressure: 30.12"   Gusts: NA
Location:  44.67°N, 92.97°W
Report Text: KSGS 202210Z AUTO 16005KT 10SM OVC014 00/M02 A3012 RMK AO2 T00031022
Loading
Personal Weather Stations






























Interactive Weather Map New forecast layout! Learn more

10-Day Weather Forecast

Advertisements
Track Severe Weather on mobile